Time;durP1;ratioP1;P1;durP2;ratioP2;P2;SDS_P1;SDS_P2;PMS_P1;PMS_P2;Temp;Humidity;BMP_temperature;BMP_pressure;BME280_temperature;BME280_humidity;BME280_pressure;Samples;Min_cycle;Max_cycle;Signal;HPM_P1;HPM_P2
2023/07/18 00:02:35;;;;;;;;;9.50;7.75;;;;;23.84;100.00;98771.09;7739623;22;96228;-65
2023/07/18 00:05:39;;;;;;;;;8.00;7.60;;;;;23.79;100.00;98762.97;7740600;22;96321;-65
2023/07/18 00:08:44;;;;;;;;;7.00;6.00;;;;;23.87;100.00;98764.97;7684261;22;98543;-66
2023/07/18 00:11:49;;;;;;;;;5.50;5.50;;;;;23.90;100.00;98767.91;7737392;22;96313;-65
2023/07/18 00:14:52;;;;;;;;;7.80;6.00;;;;;23.90;100.00;98764.34;7712511;22;96152;-65
2023/07/18 00:17:55;;;;;;;;;7.80;7.00;;;;;23.92;100.00;98771.16;7739087;22;96252;-66
2023/07/18 00:20:59;;;;;;;;;7.40;7.00;;;;;23.93;100.00;98769.22;7740233;22;96401;-65
2023/07/18 00:24:02;;;;;;;;;8.50;7.00;;;;;23.88;100.00;98777.63;7739764;22;96436;-65
2023/07/18 00:27:07;;;;;;;;;7.00;6.00;;;;;23.85;100.00;98783.75;7740716;22;96227;-65
2023/07/18 00:30:12;;;;;;;;;7.00;7.00;;;;;23.84;100.00;98782.94;7740972;22;96291;-65
2023/07/18 00:33:16;;;;;;;;;8.00;7.60;;;;;23.87;100.00;98784.25;7739734;22;96278;-65
2023/07/18 00:36:19;;;;;;;;;8.00;8.00;;;;;23.86;100.00;98783.41;7737743;22;96852;-65
2023/07/18 00:39:23;;;;;;;;;6.20;6.20;;;;;23.86;100.00;98777.91;7740542;22;96480;-65
2023/07/18 00:42:28;;;;;;;;;8.40;8.00;;;;;23.75;100.00;98769.06;7713444;22;96640;-66
2023/07/18 00:45:31;;;;;;;;;8.60;8.00;;;;;23.74;100.00;98778.47;7713714;22;96834;-65
2023/07/18 00:48:35;;;;;;;;;8.00;8.00;;;;;23.70;100.00;98777.44;7713238;22;96284;-65
2023/07/18 00:51:39;;;;;;;;;8.00;8.00;;;;;23.65;100.00;98774.81;7713221;22;97428;-65
2023/07/18 00:54:44;;;;;;;;;6.00;6.00;;;;;23.63;100.00;98788.09;7737763;22;96209;-65
2023/07/18 00:57:49;;;;;;;;;8.00;8.00;;;;;23.58;100.00;98785.44;7713396;22;96363;-65
2023/07/18 01:00:52;;;;;;;;;8.00;7.50;;;;;23.47;100.00;98775.78;7712185;22;96685;-64
2023/07/18 01:03:55;;;;;;;;;7.20;7.00;;;;;23.45;100.00;98779.97;7738850;22;96319;-65
2023/07/18 01:07:00;;;;;;;;;9.00;8.20;;;;;23.49;100.00;98773.53;7738347;22;96253;-65
2023/07/18 01:10:17;;;;;;;;;7.40;7.40;;;;;23.48;100.00;98765.59;7738408;22;96771;-65
2023/07/18 01:13:23;;;;;;;;;8.60;7.60;;;;;23.48;100.00;98776.59;7713911;22;96292;-65
2023/07/18 01:16:26;;;;;;;;;8.00;8.00;;;;;23.45;100.00;98771.72;7738194;22;96406;-65
2023/07/18 01:19:30;;;;;;;;;7.00;6.00;;;;;23.38;100.00;98758.34;7739966;22;96186;-65
2023/07/18 01:22:36;;;;;;;;;6.60;6.00;;;;;23.36;100.00;98763.31;7740142;22;96289;-65
2023/07/18 01:25:39;;;;;;;;;9.40;9.00;;;;;23.30;100.00;98759.06;7711119;22;97166;-65
2023/07/18 01:28:43;;;;;;;;;8.00;7.40;;;;;23.19;100.00;98760.41;7712706;22;96924;-66
2023/07/18 01:31:48;;;;;;;;;8.00;7.80;;;;;23.04;100.00;98749.72;7740770;22;96850;-65
2023/07/18 01:34:51;;;;;;;;;8.50;8.00;;;;;22.97;100.00;98755.63;7713271;22;96272;-65
2023/07/18 01:37:58;;;;;;;;;9.50;8.00;;;;;22.94;100.00;98763.66;7739151;22;96556;-65
2023/07/18 01:41:02;;;;;;;;;8.00;7.40;;;;;22.91;100.00;98762.34;7741410;22;96794;-65
2023/07/18 01:44:08;;;;;;;;;10.00;8.00;;;;;22.87;100.00;98764.09;7687915;22;98382;-65
2023/07/18 01:47:11;;;;;;;;;7.75;6.75;;;;;22.92;100.00;98763.97;7712163;22;96721;-65
2023/07/18 01:50:14;;;;;;;;;9.00;8.00;;;;;22.96;100.00;98766.94;7738805;22;96757;-65
2023/07/18 01:53:19;;;;;;;;;9.00;7.00;;;;;22.97;100.00;98757.56;7710772;22;96808;-65
2023/07/18 01:56:22;;;;;;;;;9.00;8.00;;;;;23.04;100.00;98766.22;7711502;22;98277;-65
2023/07/18 01:59:26;;;;;;;;;9.00;9.00;;;;;23.06;100.00;98775.81;7737871;22;96182;-65
2023/07/18 02:02:29;;;;;;;;;9.00;7.60;;;;;23.06;100.00;98777.72;7713244;22;96335;-65
2023/07/18 02:05:33;;;;;;;;;8.00;7.75;;;;;22.97;100.00;98763.06;7738631;22;96432;-65
2023/07/18 02:08:38;;;;;;;;;7.40;7.00;;;;;22.97;100.00;98760.31;7711006;22;99234;-66
2023/07/18 02:11:41;;;;;;;;;8.80;7.00;;;;;23.03;100.00;98778.31;7736499;22;96555;-65
2023/07/18 02:14:44;;;;;;;;;8.25;7.25;;;;;23.02;100.00;98776.72;7735239;22;96717;-65
2023/07/18 02:17:51;;;;;;;;;9.00;8.00;;;;;22.98;100.00;98776.50;7711235;22;96943;-65
2023/07/18 02:20:55;;;;;;;;;8.20;7.80;;;;;22.89;100.00;98775.59;7710883;22;99268;-65
2023/07/18 02:24:00;;;;;;;;;8.00;8.00;;;;;22.87;100.00;98780.59;7685660;22;98232;-65
2023/07/18 02:27:05;;;;;;;;;9.40;9.00;;;;;22.80;100.00;98786.47;7740033;22;96219;-65
2023/07/18 02:30:09;;;;;;;;;10.00;9.00;;;;;22.77;100.00;98791.78;7740501;22;96277;-65
2023/07/18 02:33:13;;;;;;;;;10.00;8.00;;;;;22.77;100.00;98802.75;7713399;22;96255;-65
2023/07/18 02:36:17;;;;;;;;;9.00;8.00;;;;;22.77;100.00;98805.50;7740677;22;96244;-65
2023/07/18 02:39:22;;;;;;;;;7.60;7.60;;;;;22.72;100.00;98806.44;7741208;22;96241;-65
2023/07/18 02:42:25;;;;;;;;;9.00;8.40;;;;;22.75;100.00;98830.53;7687207;22;98863;-65
2023/07/18 02:45:29;;;;;;;;;10.00;8.60;;;;;22.79;100.00;98830.75;7740442;22;96107;-65
2023/07/18 02:48:32;;;;;;;;;7.00;7.00;;;;;22.78;100.00;98851.09;7686901;22;98556;-65
2023/07/18 02:51:35;;;;;;;;;10.00;9.00;;;;;22.77;100.00;98844.00;7713053;22;96282;-65
2023/07/18 02:54:39;;;;;;;;;10.00;8.60;;;;;22.74;100.00;98858.31;7740499;22;96840;-65
2023/07/18 02:57:43;;;;;;;;;8.00;8.00;;;;;22.63;100.00;98854.91;7738413;22;96689;-65
2023/07/18 03:00:46;;;;;;;;;9.25;8.25;;;;;22.62;100.00;98853.28;7710034;22;98477;-65
2023/07/18 03:03:49;;;;;;;;;9.20;9.20;;;;;22.62;100.00;98853.28;7735653;22;99198;-65
2023/07/18 03:06:53;;;;;;;;;11.00;9.00;;;;;22.44;100.00;98863.19;7735766;22;96842;-65
2023/07/18 03:09:58;;;;;;;;;9.75;8.00;;;;;22.38;100.00;98874.56;7684817;22;98335;-65
2023/07/18 03:13:02;;;;;;;;;9.75;9.00;;;;;22.36;100.00;98883.09;7710296;22;97128;-65
2023/07/18 03:16:07;;;;;;;;;10.00;8.80;;;;;22.32;100.00;98884.00;7709751;22;99604;-65
2023/07/18 03:19:14;;;;;;;;;10.00;9.80;;;;;22.31;100.00;98891.41;7710575;22;97048;-65
2023/07/18 03:22:17;;;;;;;;;9.00;9.00;;;;;22.43;100.00;98902.75;7737769;22;96316;-65
2023/07/18 03:25:22;;;;;;;;;11.00;9.75;;;;;22.50;100.00;98913.38;7706773;22;96680;-65
2023/07/18 03:28:25;;;;;;;;;9.00;8.00;;;;;22.56;100.00;98912.19;7684410;22;96728;-65
2023/07/18 03:31:29;;;;;;;;;14.00;13.40;;;;;22.67;100.00;98926.59;7736682;22;96398;-66
2023/07/18 03:34:32;;;;;;;;;10.25;10.25;;;;;22.78;100.00;98934.38;7735199;22;96241;-65
2023/07/18 03:37:36;;;;;;;;;12.25;10.75;;;;;22.89;100.00;98938.59;7734593;22;96927;-65
2023/07/18 03:40:40;;;;;;;;;13.00;12.40;;;;;23.01;100.00;98949.13;7706658;22;98359;-65
2023/07/18 03:43:44;;;;;;;;;14.00;13.00;;;;;23.15;100.00;98960.16;7706292;22;98347;-65
2023/07/18 03:46:47;;;;;;;;;17.00;16.00;;;;;23.29;100.00;98964.56;7706750;22;96776;-65
2023/07/18 03:49:50;;;;;;;;;13.00;12.00;;;;;23.38;100.00;98964.69;7736188;22;96377;-65
2023/07/18 03:52:53;;;;;;;;;10.00;9.40;;;;;23.42;100.00;98964.88;7706166;22;97336;-65
2023/07/18 03:56:04;;;;;;;;;11.00;9.00;;;;;23.46;100.00;98971.44;7736003;22;96509;-65
2023/07/18 03:59:07;;;;;;;;;10.00;10.00;;;;;23.56;100.00;98983.06;7683056;22;98365;-65
2023/07/18 04:02:12;;;;;;;;;11.00;10.00;;;;;23.60;100.00;98989.59;7735064;22;96340;-66
2023/07/18 04:05:17;;;;;;;;;10.40;8.40;;;;;23.69;100.00;98995.22;7734401;22;96469;-65
2023/07/18 04:08:21;;;;;;;;;8.40;8.00;;;;;23.73;100.00;99002.56;7711119;22;96995;-65
2023/07/18 04:11:25;;;;;;;;;9.20;8.00;;;;;23.79;100.00;99003.28;7737330;22;96280;-66
2023/07/18 04:14:29;;;;;;;;;7.00;6.00;;;;;23.84;100.00;99013.38;7708431;22;97216;-65
2023/07/18 04:17:32;;;;;;;;;6.60;6.00;;;;;23.89;100.00;99027.06;7708004;22;96894;-65
2023/07/18 04:20:36;;;;;;;;;8.60;8.00;;;;;23.96;100.00;99030.19;7734058;22;96298;-65
2023/07/18 04:23:39;;;;;;;;;8.40;7.40;;;;;24.02;100.00;99038.06;7734700;22;97683;-65
2023/07/18 04:26:44;;;;;;;;;6.00;6.00;;;;;24.11;100.00;99057.44;7738840;22;96191;-65
2023/07/18 04:29:47;;;;;;;;;6.00;6.00;;;;;24.19;100.00;99055.97;7738998;22;96433;-65
2023/07/18 04:32:50;;;;;;;;;8.00;7.40;;;;;24.28;100.00;99071.47;7740142;22;96274;-65
2023/07/18 04:35:53;;;;;;;;;8.00;7.00;;;;;24.15;100.00;99070.28;7737743;22;96397;-65
2023/07/18 04:38:56;;;;;;;;;9.60;8.40;;;;;24.15;100.00;99086.00;7710987;22;96814;-65
2023/07/18 04:42:01;;;;;;;;;6.20;6.00;;;;;24.13;100.00;99096.53;7736578;22;96330;-65
2023/07/18 04:45:06;;;;;;;;;6.00;6.00;;;;;24.15;100.00;99099.78;7738969;22;96831;-65
2023/07/18 04:48:10;;;;;;;;;7.00;6.00;;;;;24.12;100.00;99100.41;7739292;22;96249;-66
2023/07/18 04:51:14;;;;;;;;;8.00;7.75;;;;;24.19;100.00;99100.03;7711642;22;96700;-65
2023/07/18 04:54:17;;;;;;;;;5.00;5.00;;;;;24.28;100.00;99096.25;7738370;22;96273;-65
2023/07/18 04:57:24;;;;;;;;;9.00;7.00;;;;;24.31;100.00;99095.63;7739656;22;96244;-65
2023/07/18 05:00:28;;;;;;;;;7.25;7.00;;;;;24.30;100.00;99099.50;7737441;22;96455;-65
2023/07/18 05:03:31;;;;;;;;;8.67;8.00;;;;;24.48;100.00;99101.34;7738920;22;97075;-64
2023/07/18 05:06:50;;;;;;;;;7.50;7.00;;;;;24.66;100.00;99104.28;7741539;22;96787;-64
2023/07/18 05:09:53;;;;;;;;;7.00;6.00;;;;;24.63;100.00;99089.16;7713842;22;98490;-64
2023/07/18 05:12:58;;;;;;;;;9.00;8.00;;;;;24.73;100.00;99105.50;7740610;22;96288;-63
2023/07/18 05:16:02;;;;;;;;;7.00;6.40;;;;;24.74;100.00;99114.56;7738795;22;96622;-65
2023/07/18 05:19:07;;;;;;;;;8.80;6.80;;;;;24.82;100.00;99122.16;7712738;22;97113;-64
2023/07/18 05:22:10;;;;;;;;;8.40;8.00;;;;;24.93;100.00;99124.38;7739345;22;96266;-65
2023/07/18 05:25:16;;;;;;;;;8.00;7.25;;;;;25.09;100.00;99135.88;7713426;22;98354;-65
2023/07/18 05:28:21;;;;;;;;;8.00;7.00;;;;;25.22;100.00;99129.50;7712085;22;96409;-63
2023/07/18 05:31:24;;;;;;;;;6.00;5.50;;;;;25.26;100.00;99138.81;7741853;22;96532;-63
2023/07/18 05:34:27;;;;;;;;;8.60;7.00;;;;;25.22;100.00;99145.25;7741536;22;96483;-64
2023/07/18 05:37:32;;;;;;;;;7.60;7.00;;;;;25.22;100.00;99146.06;7741084;22;96491;-63
2023/07/18 05:40:35;;;;;;;;;8.00;7.60;;;;;25.27;100.00;99142.38;7742604;22;96434;-63
2023/07/18 05:43:40;;;;;;;;;7.00;6.75;;;;;25.38;100.00;99152.03;7742437;22;96069;-63
2023/07/18 05:46:44;;;;;;;;;8.50;8.00;;;;;25.42;100.00;99150.28;7741959;22;96309;-64
2023/07/18 05:49:47;;;;;;;;;7.33;7.33;;;;;25.39;100.00;99151.75;7738935;22;96309;-63
2023/07/18 05:52:50;;;;;;;;;8.00;7.20;;;;;25.50;100.00;99151.50;7739269;22;96412;-64
2023/07/18 05:55:53;;;;;;;;;7.20;7.20;;;;;25.60;100.00;99162.31;7712451;22;97068;-62
2023/07/18 05:58:58;;;;;;;;;8.60;8.60;;;;;25.58;100.00;99165.38;7739841;22;96230;-63
2023/07/18 06:02:03;;;;;;;;;10.00;9.40;;;;;25.54;100.00;99171.81;7711640;22;96642;-65
2023/07/18 06:05:07;;;;;;;;;9.80;8.80;;;;;25.57;100.00;99172.03;7712270;22;96350;-63
2023/07/18 06:08:11;;;;;;;;;7.50;7.50;;;;;25.53;100.00;99168.25;7738427;22;96272;-63
2023/07/18 06:11:14;;;;;;;;;8.40;6.00;;;;;25.61;100.00;99175.78;7708912;22;98890;-64
2023/07/18 06:14:19;;;;;;;;;7.00;6.00;;;;;25.63;100.00;99176.31;7709721;22;98391;-64
2023/07/18 06:17:23;;;;;;;;;8.00;8.00;;;;;25.69;100.00;99186.13;7738016;22;96698;-63
2023/07/18 06:20:26;;;;;;;;;8.00;7.80;;;;;25.75;100.00;99181.28;7739155;22;96331;-62
2023/07/18 06:23:30;;;;;;;;;9.00;8.00;;;;;25.75;100.00;99189.56;7735876;22;96370;-63
2023/07/18 06:26:33;;;;;;;;;6.00;6.00;;;;;25.71;100.00;99185.78;7738512;22;96867;-65
2023/07/18 06:29:38;;;;;;;;;9.40;8.40;;;;;25.80;100.00;99190.22;7736591;22;96981;-64
2023/07/18 06:32:41;;;;;;;;;8.00;8.00;;;;;25.85;100.00;99190.09;7705990;22;98320;-62
2023/07/18 06:35:52;;;;;;;;;9.60;9.00;;;;;25.82;100.00;99212.03;7738141;22;96404;-62
2023/07/18 06:38:55;;;;;;;;;7.00;7.00;;;;;26.02;100.00;99207.94;7736161;22;96915;-63
2023/07/18 06:41:58;;;;;;;;;8.75;8.00;;;;;26.01;100.00;99195.25;7707236;22;98631;-63
2023/07/18 06:45:03;;;;;;;;;7.60;7.20;;;;;26.04;100.00;99213.97;7736464;22;98055;-62
2023/07/18 06:48:07;;;;;;;;;9.20;8.80;;;;;26.22;100.00;99219.31;7737917;22;96878;-64
2023/07/18 06:51:10;;;;;;;;;9.20;5.80;;;;;26.32;100.00;99222.94;7736035;22;96703;-63
2023/07/18 06:54:14;;;;;;;;;7.75;7.00;;;;;26.36;100.00;99227.50;7681659;22;98506;-62
2023/07/18 06:57:19;;;;;;;;;7.50;7.00;;;;;26.49;100.00;99226.59;7739557;22;96502;-65
2023/07/18 07:00:24;;;;;;;;;8.00;8.00;;;;;26.49;100.00;99231.31;7684024;22;98831;-62
2023/07/18 07:03:28;;;;;;;;;6.60;6.00;;;;;26.63;100.00;99230.06;7740385;22;96377;-62
2023/07/18 07:06:33;;;;;;;;;9.00;9.00;;;;;26.49;100.00;99221.06;7712489;22;96672;-63
2023/07/18 07:09:36;;;;;;;;;10.00;8.40;;;;;26.68;100.00;99227.16;7738453;22;98368;-63
2023/07/18 07:12:39;;;;;;;;;11.00;11.00;;;;;26.86;100.00;99224.47;7741053;22;96290;-62
2023/07/18 07:15:44;;;;;;;;;8.00;7.60;;;;;27.00;100.00;99228.78;7713386;22;98380;-62
2023/07/18 07:18:49;;;;;;;;;10.00;9.00;;;;;27.20;100.00;99232.09;7741048;22;96369;-63
2023/07/18 07:21:52;;;;;;;;;8.00;8.00;;;;;27.25;100.00;99223.63;7713050;22;98356;-62
2023/07/18 07:24:56;;;;;;;;;8.00;8.00;;;;;27.17;100.00;99226.03;7711922;22;98327;-62
2023/07/18 07:28:00;;;;;;;;;6.00;6.00;;;;;27.34;100.00;99230.00;7712761;22;98674;-63
2023/07/18 07:31:05;;;;;;;;;9.00;8.25;;;;;27.22;100.00;99225.06;7711953;22;98502;-62
2023/07/18 07:34:09;;;;;;;;;6.80;5.80;;;;;27.25;100.00;99231.94;7740510;22;96382;-63
2023/07/18 07:37:12;;;;;;;;;6.00;5.00;;;;;27.46;100.00;99228.22;7711930;22;99184;-63
2023/07/18 07:40:15;;;;;;;;;7.00;7.00;;;;;27.55;100.00;99242.94;7739823;22;96377;-63
2023/07/18 07:43:19;;;;;;;;;7.00;6.67;;;;;27.70;100.00;99233.31;7740423;22;96317;-63
2023/07/18 07:46:23;;;;;;;;;6.00;6.00;;;;;27.92;100.00;99243.41;7738768;22;96219;-62
2023/07/18 07:49:26;;;;;;;;;6.00;6.00;;;;;28.12;100.00;99244.72;7739832;22;96273;-63
2023/07/18 07:52:30;;;;;;;;;5.00;4.00;;;;;28.36;100.00;99256.06;7712454;22;96549;-63
2023/07/18 07:55:33;;;;;;;;;6.00;6.00;;;;;28.60;100.00;99256.34;7711384;22;96757;-63
2023/07/18 07:58:37;;;;;;;;;7.00;6.00;;;;;28.81;100.00;99256.44;7711641;22;98357;-63
2023/07/18 08:01:42;;;;;;;;;4.00;4.00;;;;;28.91;100.00;99250.53;7711278;22;96644;-62
2023/07/18 08:04:46;;;;;;;;;7.00;6.00;;;;;29.01;100.00;99261.25;7738360;22;96349;-63
2023/07/18 08:07:50;;;;;;;;;5.25;4.75;;;;;29.02;100.00;99268.44;7740434;22;96532;-64
2023/07/18 08:10:53;;;;;;;;;5.00;5.00;;;;;29.15;100.00;99255.47;7738673;22;96338;-63
2023/07/18 08:13:56;;;;;;;;;6.00;6.00;;;;;29.33;100.00;99258.97;7737340;22;96623;-63
2023/07/18 08:17:03;;;;;;;;;5.00;4.75;;;;;29.51;100.00;99247.44;7683893;22;96697;-63
2023/07/18 08:20:08;;;;;;;;;6.00;6.00;;;;;29.77;100.00;99250.00;7710950;22;96965;-63
2023/07/18 08:23:13;;;;;;;;;6.00;6.00;;;;;29.80;100.00;99227.09;7738397;22;96517;-63
2023/07/18 08:26:16;;;;;;;;;5.00;5.00;;;;;29.78;100.00;99246.06;7737899;22;96517;-63
2023/07/18 08:29:20;;;;;;;;;5.00;5.00;;;;;29.87;100.00;99251.53;7739631;22;96293;-63
2023/07/18 08:32:25;;;;;;;;;7.00;6.00;;;;;30.03;97.83;99253.41;7713062;22;96337;-63
2023/07/18 08:35:31;;;;;;;;;5.00;4.60;;;;;29.99;100.00;99244.13;7713928;22;96805;-63
2023/07/18 08:38:35;;;;;;;;;5.80;5.00;;;;;30.01;97.36;99238.19;7741839;22;96511;-64
2023/07/18 08:41:39;;;;;;;;;4.75;4.25;;;;;30.17;94.98;99239.19;7740812;22;96444;-63
2023/07/18 08:44:45;;;;;;;;;5.60;5.60;;;;;30.23;95.75;99243.38;7712526;22;98377;-63
2023/07/18 08:47:55;;;;;;;;;5.00;5.00;;;;;30.29;90.51;99244.81;7713512;22;96597;-63
2023/07/18 08:51:00;;;;;;;;;6.00;6.00;;;;;30.20;88.97;99246.06;7714503;22;96939;-63
2023/07/18 08:54:03;;;;;;;;;7.00;7.00;;;;;30.22;89.97;99244.53;7741779;22;96334;-62
2023/07/18 08:57:06;;;;;;;;;6.00;6.00;;;;;30.33;88.22;99244.91;7741740;22;96370;-63
2023/07/18 09:00:11;;;;;;;;;5.80;5.80;;;;;30.65;90.86;99246.06;7740415;22;96411;-63
2023/07/18 09:03:17;;;;;;;;;5.00;5.00;;;;;30.59;89.27;99239.09;7687903;22;98407;-62
2023/07/18 09:06:21;;;;;;;;;4.20;4.20;;;;;30.58;91.43;99245.81;7739543;22;96293;-63
2023/07/18 09:09:25;;;;;;;;;5.40;5.00;;;;;30.71;89.95;99234.34;7712584;22;96627;-63
2023/07/18 09:12:28;;;;;;;;;5.00;4.00;;;;;30.67;82.86;99235.41;7741361;22;96873;-63
2023/07/18 09:15:34;;;;;;;;;3.60;3.00;;;;;31.01;86.77;99242.47;7741611;22;96411;-63
2023/07/18 09:18:39;;;;;;;;;4.60;4.00;;;;;31.20;88.45;99240.78;7741017;22;96888;-63
2023/07/18 09:21:42;;;;;;;;;5.20;5.00;;;;;31.20;79.61;99237.16;7738536;22;96635;-63
2023/07/18 09:24:47;;;;;;;;;5.00;5.00;;;;;31.48;78.16;99229.69;7712857;22;97108;-63
2023/07/18 09:27:51;;;;;;;;;7.00;7.00;;;;;31.33;77.38;99231.22;7714469;22;96429;-63
2023/07/18 09:30:55;;;;;;;;;5.00;4.00;;;;;31.18;81.88;99226.38;7712691;22;96906;-63
2023/07/18 09:34:00;;;;;;;;;4.00;3.50;;;;;31.26;75.40;99227.41;7740918;22;96214;-63
2023/07/18 09:37:05;;;;;;;;;4.00;3.00;;;;;31.39;78.24;99221.47;7740681;22;96363;-63
2023/07/18 09:40:11;;;;;;;;;5.20;5.00;;;;;31.54;73.43;99197.63;7712585;22;96801;-63
2023/07/18 09:43:17;;;;;;;;;4.75;4.00;;;;;31.78;67.93;99217.09;7738906;22;96230;-64
2023/07/18 09:46:20;;;;;;;;;5.00;4.00;;;;;31.57;66.14;99207.31;7741642;22;96306;-64
2023/07/18 09:49:24;;;;;;;;;6.50;5.00;;;;;31.53;70.65;99215.50;7713175;22;96729;-63
2023/07/18 09:52:37;;;;;;;;;3.75;3.75;;;;;31.33;68.10;99219.25;7713751;22;96543;-63
2023/07/18 09:55:42;;;;;;;;;5.00;5.00;;;;;31.55;74.53;99207.63;7738206;22;98138;-64
2023/07/18 09:58:46;;;;;;;;;4.20;3.80;;;;;31.86;72.22;99217.31;7737901;22;96838;-64
2023/07/18 10:01:51;;;;;;;;;4.00;4.00;;;;;32.15;67.84;99203.84;7712470;22;96417;-63
2023/07/18 10:04:56;;;;;;;;;5.40;5.40;;;;;32.43;70.08;99200.16;7740426;22;96389;-63
2023/07/18 10:07:59;;;;;;;;;5.00;5.00;;;;;32.45;74.16;99195.06;7713626;22;96295;-63
2023/07/18 10:11:04;;;;;;;;;4.40;4.00;;;;;32.54;70.77;99192.88;7741538;22;96288;-63
2023/07/18 10:14:14;;;;;;;;;6.20;6.20;;;;;32.41;65.61;99194.13;7741794;22;96731;-63
2023/07/18 10:17:29;;;;;;;;;7.00;6.00;;;;;32.12;66.84;99186.97;7711092;22;96982;-64
2023/07/18 10:20:34;;;;;;;;;5.00;5.00;;;;;32.33;72.15;99184.78;7737760;22;96266;-64
2023/07/18 10:23:41;;;;;;;;;5.00;4.75;;;;;32.34;66.71;99180.00;7739557;22;96402;-64
2023/07/18 10:26:48;;;;;;;;;4.00;4.00;;;;;32.24;63.26;99168.22;7711694;22;96585;-64
2023/07/18 10:30:06;;;;;;;;;4.40;4.00;;;;;32.55;65.22;99172.16;7709352;22;96925;-63
2023/07/18 10:33:09;;;;;;;;;4.00;4.00;;;;;32.72;58.45;99171.84;7740998;22;96757;-63
2023/07/18 10:36:25;;;;;;;;;3.00;3.00;;;;;33.03;57.49;99165.41;7713850;22;96484;-64
2023/07/18 10:39:39;;;;;;;;;3.00;3.00;;;;;33.07;52.26;99158.72;7687372;22;96965;-63
2023/07/18 10:42:43;;;;;;;;;5.00;3.25;;;;;33.04;48.76;99158.59;7713712;22;98469;-64
2023/07/18 10:45:47;;;;;;;;;5.00;4.33;;;;;33.32;47.05;99155.69;7740708;22;96302;-63
2023/07/18 10:48:50;;;;;;;;;3.00;3.00;;;;;33.46;51.84;99158.78;7740450;22;96500;-65
2023/07/18 10:51:56;;;;;;;;;5.00;5.00;;;;;33.42;51.27;99155.94;7738391;22;97797;-64
2023/07/18 10:55:04;;;;;;;;;6.00;5.00;;;;;33.18;56.02;99145.03;7740303;22;96796;-64
2023/07/18 10:58:10;;;;;;;;;5.00;5.00;;;;;33.29;55.83;99129.28;7741218;22;97019;-66
2023/07/18 11:01:15;;;;;;;;;5.00;5.00;;;;;33.30;49.80;99146.84;7714073;22;96461;-63
2023/07/18 11:04:22;;;;;;;;;4.00;4.00;;;;;33.17;49.62;99137.00;7687838;22;96630;-63
2023/07/18 11:07:34;;;;;;;;;6.00;5.00;;;;;32.87;56.20;99136.69;7711683;22;96630;-64
2023/07/18 11:10:38;;;;;;;;;4.00;4.00;;;;;33.05;52.70;99121.13;7710593;22;96290;-66
2023/07/18 11:13:43;;;;;;;;;4.60;4.00;;;;;33.06;51.77;99098.44;7710358;22;98369;-64
2023/07/18 11:16:47;;;;;;;;;5.00;4.00;;;;;33.15;46.21;99123.34;7687189;22;96900;-63
2023/07/18 11:19:51;;;;;;;;;5.00;5.00;;;;;32.87;47.48;99112.34;7686211;22;98492;-64
2023/07/18 11:22:57;;;;;;;;;6.00;5.00;;;;;32.97;52.30;99119.34;7739032;22;96529;-65
2023/07/18 11:26:08;;;;;;;;;5.40;4.40;;;;;33.19;49.76;99115.06;7738556;22;96841;-63
2023/07/18 11:29:11;;;;;;;;;5.00;5.00;;;;;33.43;53.34;99112.81;7739381;22;97031;-65
2023/07/18 11:32:14;;;;;;;;;4.25;4.00;;;;;33.38;51.18;99107.50;7741220;22;96369;-64
2023/07/18 11:35:22;;;;;;;;;4.80;4.40;;;;;33.44;51.44;99106.03;7713388;22;97059;-64
2023/07/18 11:38:30;;;;;;;;;5.80;5.00;;;;;33.45;45.56;99101.25;7739454;22;96367;-65
2023/07/18 11:41:34;;;;;;;;;4.00;4.00;;;;;33.32;44.86;99094.22;7740135;22;96405;-64
2023/07/18 11:44:43;;;;;;;;;3.60;3.00;;;;;33.63;47.96;99094.03;7712346;22;96753;-64
2023/07/18 11:47:48;;;;;;;;;7.20;6.00;;;;;33.61;49.53;99090.81;7739010;22;96390;-64
2023/07/18 11:50:53;;;;;;;;;5.25;4.25;;;;;33.80;47.64;99090.81;7741531;22;96319;-65
2023/07/18 11:53:57;;;;;;;;;4.60;4.00;;;;;33.94;43.41;99076.28;7712186;22;96647;-65
2023/07/18 11:57:00;;;;;;;;;3.00;3.00;;;;;33.90;37.54;99075.41;7741255;22;96904;-63
2023/07/18 12:00:06;;;;;;;;;3.60;3.60;;;;;33.83;40.65;99072.47;7712391;22;97004;-64
2023/07/18 12:03:14;;;;;;;;;4.00;4.00;;;;;33.95;42.46;99083.50;7740837;22;96367;-64
2023/07/18 12:06:19;;;;;;;;;4.00;4.00;;;;;34.12;44.27;99082.16;7739658;22;96608;-64
2023/07/18 12:09:24;;;;;;;;;5.00;5.00;;;;;34.42;42.99;99074.72;7713517;22;100166;-64
2023/07/18 12:12:28;;;;;;;;;5.00;4.00;;;;;34.51;40.42;99080.03;7740266;22;96306;-65
2023/07/18 12:15:32;;;;;;;;;4.00;3.20;;;;;34.57;38.89;99078.56;7687652;22;96523;-64
2023/07/18 12:18:38;;;;;;;;;6.00;6.00;;;;;34.24;39.06;99076.44;7713908;22;96649;-64
2023/07/18 12:21:42;;;;;;;;;5.00;5.00;;;;;34.26;41.44;99071.25;7740576;22;96443;-65
2023/07/18 12:24:47;;;;;;;;;4.00;4.00;;;;;34.04;38.97;99074.84;7741749;22;96233;-64
2023/07/18 12:27:50;;;;;;;;;6.00;5.00;;;;;33.64;38.02;99064.91;7741453;22;96502;-64
2023/07/18 12:30:53;;;;;;;;;4.00;4.00;;;;;33.60;41.21;99064.03;7716322;22;96252;-64
2023/07/18 12:33:56;;;;;;;;;4.80;4.00;;;;;33.29;39.29;99051.03;7743201;22;96462;-64
2023/07/18 12:37:00;;;;;;;;;4.00;4.00;;;;;33.25;39.21;99047.34;7742513;22;96198;-64
2023/07/18 12:40:07;;;;;;;;;4.00;4.00;;;;;33.46;39.82;99056.19;7743452;22;96352;-64
2023/07/18 12:43:10;;;;;;;;;3.60;3.60;;;;;33.44;37.75;99046.53;7742714;22;96311;-63
2023/07/18 12:46:14;;;;;;;;;5.60;5.60;;;;;33.20;35.72;99058.84;7742830;22;96374;-63
2023/07/18 12:49:17;;;;;;;;;4.00;4.00;;;;;33.29;39.45;99051.03;7741899;22;96278;-64
2023/07/18 12:52:41;;;;;;;;;4.75;4.00;;;;;33.54;39.65;99037.53;7742252;22;96824;-64
2023/07/18 12:55:45;;;;;;;;;4.60;4.20;;;;;33.69;38.90;99033.06;7715478;22;96277;-63
2023/07/18 12:58:48;;;;;;;;;4.40;3.00;;;;;33.55;35.84;99046.75;7743842;22;96192;-64
2023/07/18 13:01:51;;;;;;;;;4.00;3.75;;;;;33.39;34.41;99041.25;7715656;22;96632;-63
2023/07/18 13:04:55;;;;;;;;;4.00;3.00;;;;;33.46;34.59;99038.59;7742014;22;96293;-65
2023/07/18 13:07:58;;;;;;;;;3.00;2.75;;;;;33.76;36.16;99033.19;7743313;22;96279;-64
2023/07/18 13:11:03;;;;;;;;;4.00;4.00;;;;;33.74;32.35;99032.75;7715288;22;96641;-64
2023/07/18 13:14:07;;;;;;;;;3.00;3.00;;;;;33.79;32.13;99024.88;7740724;22;96183;-63
2023/07/18 13:17:10;;;;;;;;;2.25;2.25;;;;;33.59;31.90;99031.66;7742058;22;96068;-64
2023/07/18 13:20:15;;;;;;;;;2.20;2.20;;;;;33.67;32.16;99027.84;7740069;22;96456;-64
2023/07/18 13:23:18;;;;;;;;;2.00;2.00;;;;;33.77;33.67;99024.41;7741154;22;96292;-65
2023/07/18 13:26:24;;;;;;;;;5.00;3.00;;;;;33.88;32.91;99027.41;7714323;22;96813;-64
2023/07/18 13:29:27;;;;;;;;;4.50;3.50;;;;;33.71;34.68;99006.34;7742674;22;96504;-64
2023/07/18 13:32:31;;;;;;;;;3.60;3.60;;;;;33.93;34.17;99018.72;7714146;22;96643;-64
2023/07/18 13:35:35;;;;;;;;;3.00;3.00;;;;;34.07;33.93;99012.53;7742259;22;96158;-64
2023/07/18 13:38:39;;;;;;;;;4.00;3.00;;;;;34.09;34.32;99005.41;7743150;22;96579;-64
2023/07/18 13:41:43;;;;;;;;;4.00;3.00;;;;;34.06;33.15;99019.34;7743115;22;97738;-64
2023/07/18 13:44:47;;;;;;;;;3.40;2.40;;;;;34.12;33.41;99007.44;7714806;22;96639;-64
2023/07/18 13:47:50;;;;;;;;;4.00;3.00;;;;;34.05;32.83;99004.53;7738247;22;97057;-65
2023/07/18 13:50:54;;;;;;;;;3.00;3.00;;;;;34.08;35.09;98998.19;7713469;22;97116;-64
2023/07/18 13:53:57;;;;;;;;;2.75;2.25;;;;;34.10;34.79;98986.63;7739087;22;96204;-66
2023/07/18 13:57:03;;;;;;;;;3.25;3.00;;;;;34.10;35.33;98975.44;7739870;22;96222;-64
2023/07/18 14:00:07;;;;;;;;;3.60;3.60;;;;;34.01;34.68;98975.69;7739025;22;96921;-64
2023/07/18 14:03:18;;;;;;;;;3.00;3.00;;;;;33.97;35.92;98980.41;7742831;22;96527;-64
2023/07/18 14:06:37;;;;;;;;;3.00;3.00;;;;;33.96;35.68;98964.81;7715494;22;96216;-64
2023/07/18 14:09:40;;;;;;;;;3.00;2.75;;;;;34.04;34.43;98968.53;7743062;22;96497;-65
2023/07/18 14:12:45;;;;;;;;;3.25;3.00;;;;;34.04;34.58;98954.53;7742012;22;96355;-65
2023/07/18 14:15:48;;;;;;;;;4.40;3.00;;;;;34.03;35.84;98959.31;7714346;22;96294;-64
2023/07/18 14:18:55;;;;;;;;;5.00;5.00;;;;;33.76;34.99;98949.31;7741416;22;96233;-65
2023/07/18 14:21:59;;;;;;;;;6.00;5.00;;;;;33.51;36.35;98946.84;7713653;22;96782;-64